Time;durP1;ratioP1;P1;durP2;ratioP2;P2;SDS_P1;SDS_P2;PMS_P1;PMS_P2;Temp;Humidity;BMP_temperature;BMP_pressure;BME280_temperature;BME280_humidity;BME280_pressure;Samples;Min_cycle;Max_cycle;Signal;HPM_P1;HPM_P2
2022/03/30 00:01:07;;;;;;;5.53;0.90;;;5.30;99.90;;;;;;5053061;28;20803;-88
2022/03/30 00:03:33;;;;;;;4.93;1.00;;;5.30;99.90;;;;;;5052629;28;20423;-89
2022/03/30 00:05:59;;;;;;;2.13;0.40;;;5.20;99.90;;;;;;5054438;28;20234;-89
2022/03/30 00:08:24;;;;;;;4.23;1.27;;;5.30;1.00;;;;;;5068544;28;20641;-88
2022/03/30 00:10:50;;;;;;;3.70;0.50;;;5.30;1.00;;;;;;5060442;28;20174;-88
2022/03/30 00:13:15;;;;;;;5.03;0.63;;;5.30;1.00;;;;;;5078016;28;20168;-89
2022/03/30 00:15:41;;;;;;;1.70;0.50;;;5.30;1.00;;;;;;5078058;28;20226;-89
2022/03/30 00:18:07;;;;;;;3.47;1.03;;;5.20;92.80;;;;;;5063629;28;20181;-91
2022/03/30 00:20:32;;;;;;;5.00;0.50;;;5.20;99.90;;;;;;5054536;28;20430;-91
2022/03/30 00:22:58;;;;;;;4.80;0.70;;;5.20;99.90;;;;;;5053659;28;20708;-91
2022/03/30 00:25:23;;;;;;;3.00;1.07;;;5.20;99.90;;;;;;5053638;28;20263;-91
2022/03/30 00:27:49;;;;;;;5.23;1.30;;;5.10;99.90;;;;;;5053497;28;20184;-91
2022/03/30 00:30:17;;;;;;;4.10;0.70;;;5.20;1.00;;;;;;5053241;28;20236;-91
2022/03/30 00:32:43;;;;;;;6.03;0.53;;;5.20;1.00;;;;;;5053864;28;20659;-91
2022/03/30 00:35:09;;;;;;;3.43;0.83;;;5.20;99.90;;;;;;5054835;28;20540;-91
2022/03/30 00:37:36;;;;;;;1.67;0.40;;;5.20;1.00;;;;;;5053251;28;20836;-91
2022/03/30 00:40:04;;;;;;;7.73;1.10;;;5.20;1.00;;;;;;5053273;28;20465;-92
2022/03/30 00:42:30;;;;;;;3.53;0.70;;;5.10;1.00;;;;;;5053111;28;20420;-91
2022/03/30 00:44:56;;;;;;;4.90;0.90;;;5.00;1.00;;;;;;5053070;28;20417;-91
2022/03/30 00:47:27;;;;;;;4.07;0.40;;;5.00;32.50;;;;;;5053305;28;20188;-92
2022/03/30 00:49:53;;;;;;;9.90;1.53;;;5.10;99.90;;;;;;5053155;28;20172;-91
2022/03/30 00:52:20;;;;;;;9.70;1.20;;;5.00;99.90;;;;;;5053046;28;20420;-91
2022/03/30 00:54:49;;;;;;;5.27;0.83;;;5.00;99.90;;;;;;5052370;28;20488;-91
2022/03/30 00:57:17;;;;;;;2.00;0.73;;;5.00;99.90;;;;;;5052869;28;20532;-91
2022/03/30 00:59:43;;;;;;;6.70;0.67;;;4.90;99.90;;;;;;5052493;28;20796;-89
2022/03/30 01:02:09;;;;;;;4.47;0.53;;;4.80;99.90;;;;;;5052298;28;20425;-89
2022/03/30 01:04:35;;;;;;;6.57;1.20;;;4.90;99.90;;;;;;5053029;28;20167;-89
2022/03/30 01:07:01;;;;;;;3.80;0.60;;;4.80;99.90;;;;;;5052156;28;20424;-90
2022/03/30 01:09:27;;;;;;;4.20;1.17;;;4.70;99.90;;;;;;5052365;28;20416;-86
2022/03/30 01:11:54;;;;;;;8.07;1.20;;;4.70;1.00;;;;;;5051272;28;20389;-86
2022/03/30 01:14:20;;;;;;;7.07;2.00;;;4.70;1.00;;;;;;5051610;28;20415;-91
2022/03/30 01:16:46;;;;;;;8.77;1.50;;;4.70;1.00;;;;;;5052498;28;20473;-92
2022/03/30 01:19:12;;;;;;;2.27;0.70;;;4.70;1.00;;;;;;5052711;28;20427;-93
2022/03/30 01:21:42;;;;;;;7.80;1.03;;;4.70;1.00;;;;;;5052794;28;20213;-92
2022/03/30 01:24:09;;;;;;;8.30;1.57;;;4.60;1.00;;;;;;5052779;28;20753;-93
2022/03/30 01:26:35;;;;;;;2.53;0.77;;;4.60;1.00;;;;;;5052702;28;20424;-92
2022/03/30 01:32:24;;;;;;;5.53;0.90;;;4.60;1.00;;;;;;5052770;28;20449;-92
2022/03/30 01:34:34;;;;;;;4.93;0.90;;;4.50;1.00;;;;;;5054046;28;20470;-91
2022/03/30 01:37:00;;;;;;;7.07;1.33;;;4.60;1.00;;;;;;5052680;28;20805;-92
2022/03/30 01:39:25;;;;;;;2.30;0.60;;;4.60;1.00;;;;;;5052643;28;20419;-92
2022/03/30 01:41:51;;;;;;;4.20;0.60;;;4.60;1.00;;;;;;5052343;28;20428;-92
2022/03/30 01:44:17;;;;;;;2.70;0.60;;;4.60;1.00;;;;;;5052625;28;20169;-92
2022/03/30 01:46:42;;;;;;;4.27;1.33;;;4.60;1.00;;;;;;5052796;28;20934;-92
2022/03/30 01:49:08;;;;;;;3.73;0.67;;;4.60;1.00;;;;;;5052326;28;20185;-93
2022/03/30 01:51:33;;;;;;;2.60;1.07;;;4.60;1.00;;;;;;5052547;28;20184;-93
2022/03/30 01:53:59;;;;;;;6.90;1.37;;;4.70;1.00;;;;;;5052684;28;20228;-93
2022/03/30 01:56:24;;;;;;;6.33;1.30;;;4.60;1.00;;;;;;5054689;28;20203;-92
2022/03/30 01:58:50;;;;;;;2.43;0.50;;;4.70;1.00;;;;;;5056054;28;20299;-93
2022/03/30 02:01:15;;;;;;;2.73;0.50;;;4.80;1.00;;;;;;5056690;28;20565;-92
2022/03/30 02:03:41;;;;;;;5.20;0.57;;;4.80;1.00;;;;;;5055763;28;20181;-92
2022/03/30 02:06:06;;;;;;;5.80;1.30;;;4.80;1.00;;;;;;5056067;28;20181;-93
2022/03/30 02:08:32;;;;;;;6.87;0.93;;;4.80;1.00;;;;;;5056029;28;20543;-92
2022/03/30 02:10:58;;;;;;;3.43;0.90;;;4.80;1.00;;;;;;5056209;28;20675;-93
2022/03/30 02:13:23;;;;;;;4.03;0.90;;;4.70;1.00;;;;;;5055927;28;20658;-93
2022/03/30 02:15:49;;;;;;;7.67;1.20;;;4.80;1.00;;;;;;5055929;28;20210;-92
2022/03/30 02:18:14;;;;;;;1.63;0.63;;;4.80;1.00;;;;;;5055364;28;20210;-88
2022/03/30 02:20:41;;;;;;;3.40;2.00;;;4.80;1.00;;;;;;5054436;28;20173;-89
2022/03/30 02:23:06;;;;;;;2.50;0.30;;;4.80;1.00;;;;;;5055755;28;20168;-87
2022/03/30 02:25:32;;;;;;;7.33;0.70;;;4.80;1.00;;;;;;5055943;28;20749;-89
2022/03/30 02:27:57;;;;;;;4.20;0.87;;;4.80;1.00;;;;;;5054569;28;20650;-87
2022/03/30 02:30:23;;;;;;;3.77;0.67;;;4.80;1.00;;;;;;5055502;28;20627;-88
2022/03/30 02:32:49;;;;;;;3.90;1.00;;;4.80;1.00;;;;;;5054840;28;20540;-91
2022/03/30 02:35:14;;;;;;;5.63;0.70;;;4.90;1.00;;;;;;5055651;28;20204;-92
2022/03/30 02:37:40;;;;;;;6.37;0.90;;;4.90;1.00;;;;;;5056336;28;20178;-92
2022/03/30 02:40:06;;;;;;;6.47;0.93;;;4.90;1.00;;;;;;5058421;28;20178;-93
2022/03/30 02:42:32;;;;;;;11.07;1.70;;;4.80;1.00;;;;;;5062970;28;20198;-92
2022/03/30 02:44:57;;;;;;;5.23;0.50;;;4.80;1.00;;;;;;5055362;28;20439;-92
2022/03/30 02:48:17;;;;;;;2.63;0.67;;;4.90;1.00;;;;;;5055268;28;20196;-91
2022/03/30 02:50:08;;;;;;;4.17;1.00;;;4.90;1.00;;;;;;5055784;28;20177;-93
2022/03/30 02:52:34;;;;;;;4.40;0.73;;;4.80;1.00;;;;;;5055124;28;20512;-91
2022/03/30 02:54:59;;;;;;;2.67;0.73;;;4.80;1.00;;;;;;5054981;28;20221;-92
2022/03/30 02:57:25;;;;;;;3.57;0.60;;;4.80;1.00;;;;;;5054868;28;20174;-90
2022/03/30 02:59:50;;;;;;;3.73;0.93;;;4.80;1.00;;;;;;5054756;28;20170;-90
2022/03/30 03:02:16;;;;;;;8.20;0.83;;;4.90;1.00;;;;;;5054703;28;20196;-91
2022/03/30 03:04:41;;;;;;;6.10;0.50;;;4.90;1.00;;;;;;5054225;28;20218;-90
2022/03/30 03:07:07;;;;;;;5.30;1.27;;;4.90;1.00;;;;;;5053320;28;20199;-90
2022/03/30 03:09:33;;;;;;;2.40;0.20;;;4.90;1.00;;;;;;5054433;28;20174;-91
2022/03/30 03:11:58;;;;;;;2.00;0.37;;;4.90;99.90;;;;;;5054500;28;20423;-91
2022/03/30 03:14:25;;;;;;;2.60;0.40;;;4.90;1.00;;;;;;5054587;28;20197;-91
2022/03/30 03:16:51;;;;;;;3.57;0.77;;;4.90;1.00;;;;;;5055390;28;20475;-90
2022/03/30 03:19:16;;;;;;;5.23;0.83;;;4.90;99.90;;;;;;5053735;28;20212;-91
2022/03/30 03:21:42;;;;;;;3.73;0.37;;;4.90;1.00;;;;;;5054201;28;20539;-90
2022/03/30 03:24:07;;;;;;;11.40;1.67;;;4.90;1.00;;;;;;5054106;28;20170;-92
2022/03/30 03:26:33;;;;;;;4.20;0.80;;;4.90;1.00;;;;;;5054011;28;20177;-90
2022/03/30 03:28:59;;;;;;;3.63;1.03;;;4.80;1.00;;;;;;5054381;28;20170;-92
2022/03/30 03:31:24;;;;;;;4.87;1.17;;;4.90;1.00;;;;;;5054503;28;20221;-92
2022/03/30 03:33:50;;;;;;;3.40;0.47;;;4.90;1.00;;;;;;5053971;28;20181;-92
2022/03/30 03:36:18;;;;;;;3.03;0.70;;;4.90;1.00;;;;;;5054221;28;20222;-91
2022/03/30 03:38:44;;;;;;;1.50;0.50;;;4.90;1.00;;;;;;5054392;28;20680;-92
2022/03/30 03:41:09;;;;;;;2.53;0.97;;;4.80;1.00;;;;;;5054266;28;20435;-92
2022/03/30 03:43:36;;;;;;;8.90;0.80;;;4.80;1.00;;;;;;5054139;28;20473;-92
2022/03/30 03:46:02;;;;;;;3.67;0.77;;;4.80;1.00;;;;;;5054191;28;20175;-91
2022/03/30 03:48:27;;;;;;;9.43;1.00;;;4.70;1.00;;;;;;5053647;28;20943;-93
2022/03/30 03:50:53;;;;;;;3.97;1.43;;;4.80;1.00;;;;;;5053715;28;20420;-93
2022/03/30 03:53:18;;;;;;;7.07;0.63;;;4.70;1.00;;;;;;5053911;28;20240;-93
2022/03/30 03:55:44;;;;;;;5.20;0.50;;;4.80;11.70;;;;;;5054160;28;20673;-91
2022/03/30 03:58:10;;;;;;;6.73;0.63;;;4.80;65.00;;;;;;5053668;28;20681;-92
2022/03/30 04:00:35;;;;;;;5.70;0.83;;;4.80;90.30;;;;;;5053659;28;20202;-90
2022/03/30 04:03:01;;;;;;;3.90;0.50;;;4.70;57.70;;;;;;5053760;28;20421;-91
2022/03/30 04:05:27;;;;;;;4.33;0.83;;;4.70;99.90;;;;;;5053345;28;20166;-91
2022/03/30 04:07:52;;;;;;;3.13;0.67;;;4.60;99.90;;;;;;5053381;28;20412;-90
2022/03/30 04:10:18;;;;;;;4.60;1.27;;;4.60;99.90;;;;;;5053388;28;20179;-90
2022/03/30 04:12:43;;;;;;;5.80;0.70;;;4.60;99.90;;;;;;5053289;28;20178;-90
2022/03/30 04:15:09;;;;;;;4.70;0.43;;;4.50;99.90;;;;;;5052910;28;20204;-89
2022/03/30 04:17:44;;;;;;;2.30;0.50;;;4.50;99.90;;;;;;5052908;28;20664;-90
2022/03/30 04:20:11;;;;;;;4.33;0.73;;;4.40;99.90;;;;;;5053828;28;20416;-91
2022/03/30 04:22:37;;;;;;;2.20;0.90;;;4.40;99.90;;;;;;5053388;28;20552;-90
2022/03/30 04:25:04;;;;;;;6.60;1.00;;;4.40;99.90;;;;;;5053152;28;20422;-91
2022/03/30 04:27:30;;;;;;;2.80;1.30;;;4.20;99.90;;;;;;5054126;28;20165;-90
2022/03/30 04:29:55;;;;;;;2.67;1.30;;;4.20;99.90;;;;;;5053284;28;20421;-90
2022/03/30 04:32:20;;;;;;;3.93;1.07;;;4.10;99.90;;;;;;5053205;28;20262;-90
2022/03/30 04:34:46;;;;;;;3.73;0.60;;;4.00;99.90;;;;;;5052708;28;20184;-89
2022/03/30 04:37:11;;;;;;;5.63;1.10;;;4.00;99.90;;;;;;5053396;28;20178;-92
2022/03/30 04:39:37;;;;;;;8.57;1.37;;;4.00;99.90;;;;;;5054056;28;20173;-93
2022/03/30 04:42:03;;;;;;;3.23;1.20;;;4.00;99.90;;;;;;5053368;28;20185;-92
2022/03/30 04:44:28;;;;;;;4.63;1.50;;;4.00;99.90;;;;;;5052568;28;20634;-89
2022/03/30 04:46:54;;;;;;;7.30;1.30;;;3.90;99.90;;;;;;5052340;28;20427;-89
2022/03/30 04:49:21;;;;;;;2.90;0.93;;;4.00;99.90;;;;;;5053082;28;21221;-88
2022/03/30 04:51:46;;;;;;;6.80;0.90;;;4.00;99.90;;;;;;5053284;28;20183;-88
2022/03/30 04:54:12;;;;;;;5.53;1.30;;;3.90;99.90;;;;;;5052679;28;20843;-88
2022/03/30 04:56:37;;;;;;;2.90;1.10;;;3.80;99.90;;;;;;5053760;28;20169;-90
2022/03/30 04:59:03;;;;;;;7.40;1.47;;;3.90;99.90;;;;;;5052589;28;20184;-87
2022/03/30 05:01:29;;;;;;;7.83;1.90;;;4.00;99.90;;;;;;5052458;28;20220;-89
2022/03/30 05:03:55;;;;;;;8.23;1.67;;;4.00;99.90;;;;;;5053680;28;20173;-88
2022/03/30 05:06:20;;;;;;;3.03;1.03;;;4.00;99.90;;;;;;5051794;28;20479;-87
2022/03/30 05:08:46;;;;;;;5.23;0.90;;;3.90;99.90;;;;;;5052900;28;20161;-87
2022/03/30 05:11:12;;;;;;;6.30;1.20;;;3.80;99.90;;;;;;5052927;28;20285;-86
2022/03/30 05:13:38;;;;;;;2.40;0.80;;;3.70;99.90;;;;;;5051501;28;20456;-87
2022/03/30 05:16:03;;;;;;;4.53;0.80;;;3.60;99.90;;;;;;5051440;28;20173;-87
2022/03/30 05:18:29;;;;;;;4.83;3.50;;;3.60;99.90;;;;;;5051140;28;20587;-87
2022/03/30 05:20:54;;;;;;;5.80;1.40;;;3.60;99.90;;;;;;5052850;28;20166;-87
2022/03/30 05:23:20;;;;;;;2.57;0.70;;;3.60;99.90;;;;;;5053125;28;20196;-88
2022/03/30 05:25:46;;;;;;;7.60;1.40;;;3.70;99.90;;;;;;5051963;28;20201;-91
2022/03/30 05:28:11;;;;;;;6.33;0.90;;;3.70;99.90;;;;;;5051753;28;20647;-88
2022/03/30 05:30:37;;;;;;;10.00;1.20;;;3.70;99.90;;;;;;5053010;28;20177;-88
2022/03/30 05:33:02;;;;;;;2.63;0.50;;;3.70;99.90;;;;;;5055438;28;20269;-87
2022/03/30 05:35:28;;;;;;;5.97;1.17;;;3.70;99.90;;;;;;5055702;28;20208;-88
2022/03/30 05:37:53;;;;;;;4.07;0.90;;;3.80;99.90;;;;;;5055501;28;20177;-88
2022/03/30 05:40:19;;;;;;;3.77;0.73;;;3.80;99.90;;;;;;5055873;28;20215;-87
2022/03/30 05:42:45;;;;;;;3.50;1.10;;;3.70;99.90;;;;;;5057140;28;20247;-88
2022/03/30 05:45:11;;;;;;;3.33;0.63;;;3.60;99.90;;;;;;5057021;28;20208;-88
2022/03/30 05:47:37;;;;;;;8.00;0.90;;;3.60;99.90;;;;;;5055610;28;20416;-87
2022/03/30 05:50:03;;;;;;;3.60;1.30;;;3.70;99.90;;;;;;5054739;28;20186;-87
2022/03/30 05:52:29;;;;;;;4.47;1.03;;;3.60;99.90;;;;;;5055392;28;20415;-88
2022/03/30 05:54:55;;;;;;;10.43;2.00;;;3.70;99.90;;;;;;5072871;28;20495;-87
2022/03/30 05:57:23;;;;;;;4.53;1.07;;;3.70;99.90;;;;;;5058345;28;20412;-88
2022/03/30 05:59:50;;;;;;;2.70;1.10;;;3.70;99.90;;;;;;5059146;28;20420;-85
2022/03/30 06:02:16;;;;;;;6.30;0.80;;;3.60;99.90;;;;;;5055910;28;20415;-85
2022/03/30 06:04:42;;;;;;;2.20;0.40;;;3.70;99.90;;;;;;5054593;28;20417;-86
2022/03/30 06:07:09;;;;;;;4.70;1.30;;;3.80;99.90;;;;;;5053548;28;20443;-85
2022/03/30 06:09:34;;;;;;;5.43;1.23;;;3.80;99.90;;;;;;5054809;28;20491;-85
2022/03/30 06:12:04;;;;;;;2.47;1.17;;;3.80;99.90;;;;;;5055215;28;20404;-89
2022/03/30 06:14:33;;;;;;;7.43;1.33;;;3.70;99.90;;;;;;5054818;28;20204;-85
2022/03/30 06:17:00;;;;;;;2.90;0.77;;;3.90;99.90;;;;;;5048164;28;20409;-86
2022/03/30 06:19:26;;;;;;;1.37;0.93;;;3.90;99.90;;;;;;5069701;28;20424;-85
2022/03/30 06:21:51;;;;;;;3.47;0.90;;;3.90;99.90;;;;;;5054052;28;20761;-85
2022/03/30 06:24:17;;;;;;;2.30;0.70;;;4.10;99.90;;;;;;5055232;28;20940;-85
2022/03/30 06:26:43;;;;;;;6.50;1.17;;;4.20;99.90;;;;;;5055110;28;20217;-86
2022/03/30 06:29:09;;;;;;;6.63;1.27;;;4.20;99.90;;;;;;5054684;28;20205;-85
2022/03/30 06:31:35;;;;;;;5.03;1.00;;;4.10;99.90;;;;;;5070414;28;20451;-85
2022/03/30 06:34:02;;;;;;;2.40;0.90;;;4.10;99.90;;;;;;5053456;28;20440;-85
2022/03/30 06:36:29;;;;;;;3.60;0.40;;;4.10;99.90;;;;;;5054023;28;20416;-85
2022/03/30 06:38:55;;;;;;;3.80;0.90;;;3.90;99.90;;;;;;5055123;28;20409;-88
2022/03/30 06:41:22;;;;;;;4.60;0.57;;;3.90;99.90;;;;;;5070288;28;21145;-85
2022/03/30 06:43:47;;;;;;;2.93;1.27;;;3.80;99.90;;;;;;5055058;28;20542;-86
2022/03/30 06:46:14;;;;;;;4.93;1.33;;;4.00;99.90;;;;;;5055135;28;20939;-85
2022/03/30 06:48:40;;;;;;;10.27;1.77;;;4.00;99.90;;;;;;5053373;28;20178;-86
2022/03/30 06:51:06;;;;;;;3.30;0.57;;;4.10;99.90;;;;;;5053781;28;20507;-85
2022/03/30 06:53:32;;;;;;;3.33;1.03;;;4.20;99.90;;;;;;5054708;28;21053;-86
2022/03/30 06:55:58;;;;;;;3.60;0.70;;;4.20;99.90;;;;;;5053690;28;20270;-85
2022/03/30 06:58:24;;;;;;;4.17;1.30;;;4.20;99.90;;;;;;5054766;28;20772;-86
2022/03/30 07:00:51;;;;;;;6.07;1.33;;;4.40;99.90;;;;;;5053453;28;20439;-86
2022/03/30 07:03:16;;;;;;;1.60;0.80;;;4.40;99.90;;;;;;5069973;28;20180;-86
2022/03/30 07:05:42;;;;;;;5.03;0.90;;;4.40;99.90;;;;;;5053358;28;21086;-86
2022/03/30 07:10:52;;;;;;;3.07;0.63;;;4.30;99.90;;;;;;5054482;28;20213;-85
2022/03/30 07:13:19;;;;;;;2.40;0.30;;;4.30;99.90;;;;;;5069860;28;20447;-87
2022/03/30 07:15:45;;;;;;;3.40;0.57;;;4.30;99.90;;;;;;5053120;28;20713;-85
2022/03/30 07:18:13;;;;;;;6.43;1.13;;;4.20;99.90;;;;;;5054155;28;20450;-85
2022/03/30 07:20:39;;;;;;;1.97;0.90;;;4.30;99.90;;;;;;5053051;28;20412;-85
2022/03/30 07:23:04;;;;;;;2.53;0.33;;;4.40;99.90;;;;;;5054215;28;20416;-85
2022/03/30 07:25:31;;;;;;;3.37;1.67;;;4.50;99.90;;;;;;5053051;28;20482;-85
2022/03/30 07:27:58;;;;;;;1.30;0.50;;;4.50;99.90;;;;;;5069902;28;20787;-84
2022/03/30 07:30:25;;;;;;;1.80;0.70;;;4.60;99.90;;;;;;5053092;28;20408;-87
2022/03/30 07:32:53;;;;;;;4.47;2.07;;;4.60;99.90;;;;;;5052844;28;20431;-87
2022/03/30 07:35:20;;;;;;;2.43;0.80;;;4.50;99.90;;;;;;5054397;28;20554;-86
2022/03/30 07:37:46;;;;;;;6.80;1.60;;;4.60;99.90;;;;;;5054775;28;20900;-89
2022/03/30 07:40:16;;;;;;;2.03;0.30;;;4.80;99.90;;;;;;5055332;28;20433;-91
2022/03/30 07:42:42;;;;;;;5.23;0.90;;;4.80;99.90;;;;;;5055999;28;20542;-93
2022/03/30 07:45:08;;;;;;;0.97;0.60;;;4.80;99.90;;;;;;5055640;28;20463;-89
2022/03/30 07:47:34;;;;;;;3.43;0.60;;;4.90;99.90;;;;;;5053635;28;20491;-86
2022/03/30 07:50:00;;;;;;;7.40;1.17;;;4.90;99.90;;;;;;5050530;28;20457;-89
2022/03/30 07:52:27;;;;;;;0.90;0.50;;;4.80;99.90;;;;;;5052163;28;20798;-86
2022/03/30 07:54:54;;;;;;;2.73;0.67;;;4.80;99.90;;;;;;5054230;28;20859;-91
2022/03/30 07:57:29;;;;;;;1.20;1.10;;;5.00;99.90;;;;;;5054263;28;20413;-86
2022/03/30 07:59:57;;;;;;;1.57;0.50;;;4.90;99.90;;;;;;5053477;28;20522;-86
2022/03/30 08:02:23;;;;;;;1.80;0.53;;;5.00;99.90;;;;;;5053443;28;20424;-89
2022/03/30 08:04:49;;;;;;;4.20;0.67;;;5.00;99.90;;;;;;5054210;28;20765;-90
2022/03/30 08:07:16;;;;;;;2.03;0.83;;;4.80;99.90;;;;;;5054017;28;20435;-88
2022/03/30 08:09:42;;;;;;;4.27;0.60;;;4.80;99.90;;;;;;5055223;28;20404;-89
2022/03/30 08:12:10;;;;;;;2.60;0.40;;;5.00;99.90;;;;;;5054898;28;20404;-88
2022/03/30 08:14:35;;;;;;;4.07;0.63;;;4.90;99.90;;;;;;5054398;28;20412;-89
2022/03/30 08:17:01;;;;;;;1.60;0.40;;;5.00;99.90;;;;;;5055596;28;20414;-91
2022/03/30 08:19:27;;;;;;;3.40;0.40;;;5.30;99.90;;;;;;5055245;28;20171;-91
2022/03/30 08:24:46;;;;;;;2.80;0.70;;;5.40;99.90;;;;;;5057535;28;20407;-91
2022/03/30 08:27:13;;;;;;;7.90;1.00;;;5.40;99.90;;;;;;5056614;28;20874;-89
2022/03/30 08:29:39;;;;;;;4.30;0.67;;;5.20;99.90;;;;;;5054061;28;20768;-85
2022/03/30 08:32:05;;;;;;;3.47;0.73;;;5.50;99.90;;;;;;5055744;28;20425;-89
2022/03/30 08:34:30;;;;;;;4.80;0.87;;;5.50;68.80;;;;;;5056583;28;20327;-89
2022/03/30 08:36:58;;;;;;;1.00;0.60;;;5.70;99.90;;;;;;5056793;28;20960;-88
2022/03/30 08:39:24;;;;;;;2.80;0.97;;;5.90;99.90;;;;;;5052976;28;20178;-87
2022/03/30 08:41:49;;;;;;;1.20;0.60;;;6.00;97.20;;;;;;5052433;28;20565;-87
2022/03/30 08:44:17;;;;;;;11.43;1.57;;;6.10;79.60;;;;;;5052365;28;20172;-87
2022/03/30 08:46:45;;;;;;;3.90;0.83;;;5.90;25.40;;;;;;5053063;28;20281;-85
2022/03/30 08:49:11;;;;;;;1.70;0.47;;;5.90;99.90;;;;;;5052191;28;20457;-87
2022/03/30 08:51:39;;;;;;;1.60;0.70;;;5.90;99.90;;;;;;5068191;28;20516;-87
2022/03/30 08:54:05;;;;;;;7.20;0.40;;;5.70;99.90;;;;;;5051723;28;20463;-85
2022/03/30 08:56:31;;;;;;;1.40;0.30;;;5.70;99.90;;;;;;5051768;28;20424;-85
2022/03/30 08:59:20;;;;;;;3.27;0.60;;;5.80;59.00;;;;;;5052293;28;20814;-87
2022/03/30 09:01:47;;;;;;;2.03;0.57;;;5.80;31.20;;;;;;5051127;28;21042;-84
2022/03/30 09:04:14;;;;;;;2.53;0.83;;;5.60;54.80;;;;;;5053088;28;20401;-86
2022/03/30 09:06:40;;;;;;;1.13;0.30;;;5.70;99.90;;;;;;5060022;28;20492;-88
2022/03/30 09:09:06;;;;;;;4.37;1.50;;;5.60;21.70;;;;;;5056370;28;20420;-90
2022/03/30 09:11:56;;;;;;;3.90;1.27;;;5.60;24.60;;;;;;5056908;28;20244;-90
2022/03/30 09:14:30;;;;;;;3.13;1.57;;;5.60;23.50;;;;;;5056894;28;20414;-92
2022/03/30 09:16:59;;;;;;;2.30;0.30;;;5.60;25.30;;;;;;5057776;28;20984;-92
2022/03/30 09:19:26;;;;;;;5.33;0.93;;;6.00;99.90;;;;;;5056131;28;20426;-86
2022/03/30 09:22:00;;;;;;;1.33;0.43;;;6.00;1.00;;;;;;5057122;28;20902;-91
2022/03/30 09:24:29;;;;;;;4.60;0.90;;;6.10;1.00;;;;;;5056819;28;20415;-90
2022/03/30 09:26:56;;;;;;;1.80;0.37;;;6.00;1.00;;;;;;5056480;28;20476;-90
2022/03/30 09:29:23;;;;;;;1.43;0.33;;;6.10;1.00;;;;;;5057663;28;20446;-91
2022/03/30 09:31:50;;;;;;;1.63;0.37;;;6.20;22.10;;;;;;5059693;28;20412;-89
2022/03/30 09:34:17;;;;;;;2.73;0.60;;;6.20;1.00;;;;;;5056085;28;20548;-89
2022/03/30 09:36:44;;;;;;;4.43;1.63;;;5.80;1.00;;;;;;5056277;28;20422;-89
2022/03/30 09:39:28;;;;;;;3.40;0.50;;;5.80;71.70;;;;;;5056545;28;20454;-94
2022/03/30 09:41:59;;;;;;;3.63;1.23;;;5.90;1.00;;;;;;5057138;28;20427;-92
2022/03/30 09:44:26;;;;;;;3.00;0.40;;;5.90;1.00;;;;;;5056891;28;20404;-93
2022/03/30 09:46:56;;;;;;;0.53;0.27;;;5.80;1.00;;;;;;5058146;28;20477;-91
2022/03/30 09:49:48;;;;;;;3.70;0.97;;;5.80;53.50;;;;;;5060251;28;20412;-92
2022/03/30 09:52:18;;;;;;;3.90;0.80;;;6.00;42.80;;;;;;5056069;28;20425;-90
2022/03/30 09:54:54;;;;;;;2.87;0.40;;;6.10;26.40;;;;;;5055857;28;20482;-93
2022/03/30 09:57:22;;;;;;;0.90;0.30;;;6.30;38.60;;;;;;5055696;28;20422;-90
2022/03/30 09:59:58;;;;;;;3.33;0.33;;;6.10;31.40;;;;;;5056170;28;20425;-92
2022/03/30 10:02:25;;;;;;;2.60;0.83;;;6.20;26.80;;;;;;5057527;28;20416;-90
2022/03/30 10:04:51;;;;;;;2.93;0.63;;;6.40;1.00;;;;;;5055323;28;20419;-91
2022/03/30 10:07:17;;;;;;;1.60;0.50;;;6.40;1.00;;;;;;5055320;28;20420;-88
2022/03/30 10:09:43;;;;;;;2.77;0.20;;;6.50;18.00;;;;;;5054186;28;20421;-86
2022/03/30 10:12:09;;;;;;;1.90;0.43;;;6.60;1.00;;;;;;5055027;28;20936;-86
2022/03/30 10:14:40;;;;;;;2.50;0.47;;;6.40;1.00;;;;;;5054297;28;20410;-87
2022/03/30 10:17:05;;;;;;;1.17;0.50;;;6.30;1.00;;;;;;5054917;28;20422;-86
2022/03/30 10:19:32;;;;;;;0.93;0.20;;;6.30;1.00;;;;;;5053936;28;20428;-88
2022/03/30 10:22:15;;;;;;;4.23;0.80;;;6.20;9.40;;;;;;5055457;28;20158;-87
2022/03/30 10:25:19;;;;;;;2.77;0.40;;;6.20;1.00;;;;;;5053840;28;20417;-87
2022/03/30 10:28:11;;;;;;;2.03;0.47;;;6.20;1.00;;;;;;5055381;28;20424;-87
2022/03/30 10:30:39;;;;;;;4.60;0.40;;;6.30;1.00;;;;;;5070795;28;20448;-86
2022/03/30 10:33:04;;;;;;;3.40;0.73;;;6.40;6.60;;;;;;5053578;28;20437;-86
2022/03/30 10:35:57;;;;;;;0.93;0.27;;;6.40;1.00;;;;;;5053801;28;20958;-86
2022/03/30 10:38:22;;;;;;;3.73;1.03;;;6.30;1.00;;;;;;5038988;28;20598;-86
2022/03/30 10:41:04;;;;;;;5.77;0.60;;;6.00;1.00;;;;;;5054974;28;20414;-86
2022/03/30 10:43:31;;;;;;;2.40;0.70;;;5.80;1.00;;;;;;5053862;28;20170;-86
2022/03/30 10:46:03;;;;;;;2.40;0.33;;;5.90;46.30;;;;;;5053626;28;20516;-86
2022/03/30 10:48:28;;;;;;;1.57;0.30;;;6.10;94.30;;;;;;5053287;28;20904;-85
2022/03/30 10:50:58;;;;;;;1.80;0.57;;;6.20;1.00;;;;;;5053526;28;20522;-86
2022/03/30 10:53:38;;;;;;;2.37;0.40;;;6.40;1.00;;;;;;5054907;28;20208;-86
2022/03/30 10:56:15;;;;;;;2.90;0.70;;;6.80;1.00;;;;;;5054852;28;20991;-87
2022/03/30 10:58:49;;;;;;;0.60;0.33;;;6.90;1.00;;;;;;5054757;28;20437;-86
2022/03/30 11:01:27;;;;;;;3.80;0.47;;;6.90;1.00;;;;;;5054752;28;20426;-88
2022/03/30 11:04:05;;;;;;;2.93;1.33;;;7.40;99.90;;;;;;5070188;28;20495;-87
2022/03/30 11:06:35;;;;;;;1.57;0.30;;;7.40;9.90;;;;;;5052759;28;20469;-87
2022/03/30 11:09:02;;;;;;;1.60;0.47;;;7.40;1.00;;;;;;5052648;28;20419;-88
2022/03/30 11:11:39;;;;;;;1.00;0.70;;;7.40;1.00;;;;;;5053000;28;20426;-86
2022/03/30 11:14:32;;;;;;;0.57;0.20;;;7.60;99.90;;;;;;5053880;28;20424;-86
2022/03/30 11:17:06;;;;;;;1.50;0.40;;;7.90;99.90;;;;;;5053927;28;20412;-87
2022/03/30 11:19:47;;;;;;;0.67;0.30;;;7.90;56.90;;;;;;5053716;28;20413;-88
2022/03/30 11:22:33;;;;;;;1.77;0.60;;;7.70;99.90;;;;;;5053644;28;20462;-87
2022/03/30 11:25:09;;;;;;;1.37;0.33;;;7.40;1.00;;;;;;5054586;28;20411;-88
2022/03/30 11:27:35;;;;;;;4.00;0.53;;;7.30;1.00;;;;;;5057082;28;20430;-88
2022/03/30 11:30:10;;;;;;;3.40;0.33;;;7.20;1.00;;;;;;5054931;28;20410;-87
2022/03/30 11:33:00;;;;;;;0.90;0.40;;;7.20;49.80;;;;;;5053572;28;20815;-87
2022/03/30 11:35:28;;;;;;;1.67;0.20;;;7.20;1.00;;;;;;5069306;28;20420;-87
2022/03/30 11:38:15;;;;;;;1.33;0.20;;;7.00;1.00;;;;;;5053957;28;20413;-87
2022/03/30 11:40:44;;;;;;;4.00;0.40;;;7.10;99.90;;;;;;5054092;28;20971;-85
2022/03/30 11:43:10;;;;;;;1.90;0.30;;;7.10;99.90;;;;;;5052949;28;20416;-87
2022/03/30 11:45:36;;;;;;;3.27;0.47;;;7.30;1.00;;;;;;5054583;28;20506;-86
2022/03/30 11:48:08;;;;;;;3.63;0.37;;;7.30;99.90;;;;;;5070391;28;20431;-86
2022/03/30 11:50:39;;;;;;;0.80;0.30;;;7.60;99.90;;;;;;5053201;28;20419;-88
2022/03/30 11:53:10;;;;;;;2.47;0.40;;;7.70;53.90;;;;;;5055157;28;20425;-86
2022/03/30 11:55:49;;;;;;;0.67;0.20;;;7.70;1.00;;;;;;5052370;28;20997;-86
2022/03/30 11:58:35;;;;;;;0.60;0.20;;;7.70;1.00;;;;;;5052976;28;20861;-86
2022/03/30 12:01:05;;;;;;;1.80;0.30;;;7.40;99.90;;;;;;5051957;28;20421;-85
2022/03/30 12:03:31;;;;;;;2.17;0.47;;;7.50;1.00;;;;;;5051515;28;20411;-86
2022/03/30 12:05:58;;;;;;;1.40;0.50;;;7.20;99.90;;;;;;5051837;28;20481;-86
2022/03/30 12:08:25;;;;;;;2.30;0.20;;;7.20;1.00;;;;;;5053287;28;20410;-85
2022/03/30 12:10:56;;;;;;;0.73;0.30;;;7.30;99.90;;;;;;5053600;28;20416;-86
2022/03/30 12:13:24;;;;;;;1.83;0.43;;;7.10;99.90;;;;;;5053303;28;20930;-86
2022/03/30 12:16:10;;;;;;;1.33;0.40;;;7.00;99.90;;;;;;5052140;28;20431;-85
2022/03/30 12:18:48;;;;;;;1.83;0.40;;;7.10;99.90;;;;;;5051692;28;20811;-86
2022/03/30 12:21:23;;;;;;;1.03;0.40;;;6.90;99.90;;;;;;5051983;28;20461;-86
2022/03/30 12:23:53;;;;;;;1.10;0.43;;;7.30;1.00;;;;;;5051977;28;20768;-86
2022/03/30 12:26:19;;;;;;;2.27;0.70;;;7.10;99.90;;;;;;5068596;28;20474;-85
2022/03/30 12:28:44;;;;;;;0.77;0.40;;;7.10;32.90;;;;;;5068655;28;20980;-86
2022/03/30 12:31:10;;;;;;;2.10;1.00;;;7.00;1.00;;;;;;5051761;28;20183;-85
2022/03/30 12:33:50;;;;;;;1.40;0.67;;;7.00;99.90;;;;;;5068102;28;20175;-85
2022/03/30 12:36:21;;;;;;;2.33;0.40;;;7.00;99.90;;;;;;5051583;28;20992;-86
2022/03/30 12:38:50;;;;;;;0.90;0.33;;;7.50;1.00;;;;;;5051847;28;20508;-86
2022/03/30 12:41:24;;;;;;;2.00;0.30;;;7.40;1.00;;;;;;5051973;28;20426;-92
2022/03/30 12:43:58;;;;;;;1.90;0.40;;;7.50;99.90;;;;;;5054423;28;20417;-89
2022/03/30 12:46:24;;;;;;;3.20;0.40;;;7.60;1.00;;;;;;5055126;28;20520;-92
2022/03/30 12:48:50;;;;;;;2.07;0.50;;;7.60;1.00;;;;;;5052858;28;20501;-88
2022/03/30 12:51:19;;;;;;;1.30;0.57;;;7.50;1.00;;;;;;5051997;28;20271;-89
2022/03/30 12:53:48;;;;;;;2.10;0.45;;;7.50;1.00;;;;;;5051518;28;20431;-88
2022/03/30 12:56:19;;;;;;;1.03;0.60;;;7.50;1.00;;;;;;5053447;28;20164;-89
2022/03/30 12:59:00;;;;;;;1.07;0.40;;;7.60;1.00;;;;;;5053656;28;20937;-90
2022/03/30 13:01:37;;;;;;;3.90;0.37;;;7.70;99.90;;;;;;5053978;28;20498;-87
2022/03/30 13:04:23;;;;;;;1.10;0.33;;;7.70;99.90;;;;;;5053559;28;20407;-90
2022/03/30 13:07:11;;;;;;;1.10;0.40;;;7.70;1.00;;;;;;5069341;28;20496;-89
2022/03/30 13:09:39;;;;;;;0.67;0.33;;;7.70;1.00;;;;;;5052844;28;20488;-88
2022/03/30 13:12:06;;;;;;;2.53;0.40;;;7.80;1.00;;;;;;5053729;28;20441;-90
2022/03/30 13:14:32;;;;;;;0.70;0.40;;;7.70;99.90;;;;;;5053643;28;20417;-89